Time;durP1;ratioP1;P1;durP2;ratioP2;P2;SDS_P1;SDS_P2;PMS_P1;PMS_P2;Temp;Humidity;BMP_temperature;BMP_pressure;BME280_temperature;BME280_humidity;BME280_pressure;Samples;Min_cycle;Max_cycle;Signal;HPM_P1;HPM_P2
2023/03/05 00:02:17;;;;;;;;;;;;;;;3.07;72.30;98624.09;7382218;19;20367;-72
2023/03/05 00:04:44;;;;;;;;;;;;;;;3.02;72.46;98624.38;7372604;19;19918;-72
2023/03/05 00:07:13;;;;;;;;;;;;;;;3.01;72.75;98627.13;7379945;19;19926;-71
2023/03/05 00:09:39;;;;;;;;;;;;;;;3.05;72.54;98626.81;7377603;19;19919;-71
2023/03/05 00:12:06;;;;;;;;;;;;;;;3.06;72.99;98632.88;7374426;19;19962;-71
2023/03/05 00:14:33;;;;;;;;;;;;;;;3.07;72.70;98630.16;7374926;19;19910;-71
2023/03/05 00:16:59;;;;;;;;;;;;;;;3.09;72.61;98619.59;7374832;19;19919;-71
2023/03/05 00:19:26;;;;;;;;;;;;;;;3.11;72.98;98622.97;7380068;19;19915;-71
2023/03/05 00:21:52;;;;;;;;;;;;;;;3.13;72.85;98622.84;7376675;19;19915;-71
2023/03/05 00:24:19;;;;;;;;;;;;;;;3.10;73.00;98617.81;7376863;19;20386;-71
2023/03/05 00:26:45;;;;;;;;;;;;;;;3.07;72.80;98616.25;7373351;19;19918;-72
2023/03/05 00:29:17;;;;;;;;;;;;;;;3.05;72.85;98621.59;7376392;19;19918;-72
2023/03/05 00:31:44;;;;;;;;;;;;;;;2.99;72.14;98611.53;7376595;19;19918;-72
2023/03/05 00:34:11;;;;;;;;;;;;;;;2.88;72.24;98615.81;7374633;19;19934;-71
2023/03/05 00:36:39;;;;;;;;;;;;;;;2.92;72.40;98602.41;7376164;19;19997;-72
2023/03/05 00:39:05;;;;;;;;;;;;;;;2.89;72.44;98607.84;7375812;19;20742;-71
2023/03/05 00:41:32;;;;;;;;;;;;;;;2.71;72.53;98607.28;7379253;19;19918;-72
2023/03/05 00:43:58;;;;;;;;;;;;;;;2.70;72.88;98604.78;7373325;19;19915;-71
2023/03/05 00:46:26;;;;;;;;;;;;;;;2.57;72.70;98608.19;7373800;19;20652;-71
2023/03/05 00:48:54;;;;;;;;;;;;;;;2.55;72.83;98599.59;7373534;19;19978;-71
2023/03/05 00:51:20;;;;;;;;;;;;;;;2.73;73.14;98601.97;7376134;19;19927;-72
2023/03/05 00:53:48;;;;;;;;;;;;;;;2.80;73.20;98600.63;7371891;19;19990;-71
2023/03/05 00:56:14;;;;;;;;;;;;;;;2.75;72.97;98600.94;7381219;19;20241;-71
2023/03/05 00:58:41;;;;;;;;;;;;;;;2.72;72.70;98595.06;7376229;19;19919;-72
2023/03/05 01:01:07;;;;;;;;;;;;;;;2.79;72.79;98593.72;7375237;19;20315;-71
2023/03/05 01:03:34;;;;;;;;;;;;;;;2.89;73.00;98586.09;7376952;19;20354;-71
2023/03/05 01:06:03;;;;;;;;;;;;;;;2.92;72.94;98596.34;7376923;19;19922;-72
2023/03/05 01:08:30;;;;;;;;;;;;;;;2.94;72.86;98587.47;7376317;19;19922;-72
2023/03/05 01:10:57;;;;;;;;;;;;;;;2.96;72.71;98593.44;7377690;19;19919;-72
2023/03/05 01:13:23;;;;;;;;;;;;;;;2.93;72.88;98584.97;7378483;19;19919;-71
2023/03/05 01:15:52;;;;;;;;;;;;;;;2.96;73.00;98584.78;7370705;19;19915;-72
2023/03/05 01:18:19;;;;;;;;;;;;;;;2.99;73.05;98579.34;7380829;19;19919;-72
2023/03/05 01:20:46;;;;;;;;;;;;;;;3.00;73.34;98579.25;7377265;19;19925;-72
2023/03/05 01:23:13;;;;;;;;;;;;;;;3.02;73.29;98582.56;7377401;19;19944;-72
2023/03/05 01:25:39;;;;;;;;;;;;;;;3.04;73.50;98578.06;7376096;19;20367;-72
2023/03/05 01:28:06;;;;;;;;;;;;;;;3.06;73.62;98576.19;7378942;19;20006;-72
2023/03/05 01:30:33;;;;;;;;;;;;;;;3.06;73.61;98563.13;7378729;19;19942;-72
2023/03/05 01:32:59;;;;;;;;;;;;;;;3.09;73.59;98564.72;7374311;19;19922;-72
2023/03/05 01:35:26;;;;;;;;;;;;;;;3.11;73.83;98559.34;7374045;19;20332;-72
2023/03/05 01:37:53;;;;;;;;;;;;;;;3.12;73.92;98563.66;7370264;19;20340;-72
2023/03/05 01:40:23;;;;;;;;;;;;;;;3.13;74.02;98557.47;7378252;19;20666;-72
2023/03/05 01:42:54;;;;;;;;;;;;;;;3.14;73.88;98549.53;7374200;19;19919;-72
2023/03/05 01:45:21;;;;;;;;;;;;;;;3.16;73.70;98549.44;7373834;19;19940;-72
2023/03/05 01:47:47;;;;;;;;;;;;;;;3.18;73.74;98543.16;7378436;19;22251;-72
2023/03/05 01:50:17;;;;;;;;;;;;;;;3.19;73.85;98544.84;7377507;19;19947;-72
2023/03/05 01:53:10;;;;;;;;;;;;;;;3.16;73.97;98545.06;7371854;19;19919;-72
2023/03/05 01:55:37;;;;;;;;;;;;;;;3.16;73.91;98538.97;7371544;19;19926;-72
2023/03/05 01:58:05;;;;;;;;;;;;;;;3.16;73.89;98542.44;7377896;19;19919;-72
2023/03/05 02:00:40;;;;;;;;;;;;;;;3.17;73.81;98538.88;7378057;19;19922;-72
2023/03/05 02:03:07;;;;;;;;;;;;;;;3.18;73.98;98534.47;7378541;19;19921;-72
2023/03/05 02:05:34;;;;;;;;;;;;;;;3.20;73.88;98529.97;7373186;19;20267;-72
2023/03/05 02:08:05;;;;;;;;;;;;;;;3.21;73.90;98536.88;7377456;19;19929;-72
2023/03/05 02:10:33;;;;;;;;;;;;;;;3.22;73.70;98528.94;7373291;19;19919;-72
2023/03/05 02:13:00;;;;;;;;;;;;;;;3.22;73.65;98525.50;7374899;19;19927;-72
2023/03/05 02:15:27;;;;;;;;;;;;;;;3.23;73.52;98516.69;7374020;19;19939;-72
2023/03/05 02:17:54;;;;;;;;;;;;;;;3.24;73.73;98515.78;7372841;19;19942;-72
2023/03/05 02:20:21;;;;;;;;;;;;;;;3.25;73.96;98512.22;7373653;19;20523;-72
2023/03/05 02:22:48;;;;;;;;;;;;;;;3.26;73.83;98509.47;7376031;19;20279;-71
2023/03/05 02:25:25;;;;;;;;;;;;;;;3.26;73.85;98503.41;7375040;19;19919;-72
2023/03/05 02:28:02;;;;;;;;;;;;;;;3.26;73.95;98508.63;7372801;19;19939;-72
2023/03/05 02:30:30;;;;;;;;;;;;;;;3.27;74.06;98510.31;7376008;19;19938;-71
2023/03/05 02:32:57;;;;;;;;;;;;;;;3.29;73.88;98505.81;7376527;19;19925;-71
2023/03/05 02:35:24;;;;;;;;;;;;;;;3.29;73.92;98506.66;7372630;19;20275;-71
2023/03/05 02:37:50;;;;;;;;;;;;;;;3.33;73.58;98504.66;7373675;19;19934;-71
2023/03/05 02:40:17;;;;;;;;;;;;;;;3.34;73.39;98508.09;7378078;19;19919;-71
2023/03/05 02:42:44;;;;;;;;;;;;;;;3.30;73.39;98502.25;7377810;19;19950;-71
2023/03/05 02:45:12;;;;;;;;;;;;;;;3.31;73.35;98496.09;7370232;19;19922;-71
2023/03/05 02:47:39;;;;;;;;;;;;;;;3.33;73.30;98504.66;7374503;19;20441;-71
2023/03/05 02:50:06;;;;;;;;;;;;;;;3.31;73.42;98493.47;7373776;19;20385;-71
2023/03/05 02:52:33;;;;;;;;;;;;;;;3.29;73.41;98488.38;7374853;19;20375;-71
2023/03/05 02:54:59;;;;;;;;;;;;;;;3.15;73.02;98491.09;7372387;19;19925;-71
2023/03/05 02:57:28;;;;;;;;;;;;;;;3.09;73.33;98483.69;7378520;19;19921;-71
2023/03/05 02:59:54;;;;;;;;;;;;;;;3.16;73.33;98486.69;7376338;19;19919;-71
2023/03/05 03:02:21;;;;;;;;;;;;;;;3.22;73.43;98481.06;7378428;19;19931;-71
2023/03/05 03:04:47;;;;;;;;;;;;;;;3.18;73.46;98474.34;7372899;19;20300;-71
2023/03/05 03:07:14;;;;;;;;;;;;;;;3.21;73.40;98475.00;7374894;19;19918;-71
2023/03/05 03:09:42;;;;;;;;;;;;;;;3.17;73.43;98472.69;7376454;19;19946;-71
2023/03/05 03:12:09;;;;;;;;;;;;;;;3.14;73.38;98473.75;7376051;19;19930;-71
2023/03/05 03:14:38;;;;;;;;;;;;;;;3.12;73.65;98461.72;7372881;19;19946;-72
2023/03/05 03:17:08;;;;;;;;;;;;;;;3.13;73.22;98469.44;7372548;19;20289;-71
2023/03/05 03:19:35;;;;;;;;;;;;;;;3.14;73.58;98465.06;7374172;19;19919;-71
2023/03/05 03:22:02;;;;;;;;;;;;;;;3.18;73.66;98466.50;7374497;19;20555;-71
2023/03/05 03:24:29;;;;;;;;;;;;;;;3.18;73.83;98462.09;7372357;19;19922;-71
2023/03/05 03:26:55;;;;;;;;;;;;;;;3.18;73.70;98463.88;7373168;19;19915;-71
2023/03/05 03:29:22;;;;;;;;;;;;;;;3.18;73.82;98466.50;7378780;19;19922;-71
2023/03/05 03:31:48;;;;;;;;;;;;;;;3.13;73.99;98458.16;7377134;19;19915;-71
2023/03/05 03:34:15;;;;;;;;;;;;;;;3.13;74.10;98456.34;7376223;19;19929;-71
2023/03/05 03:36:42;;;;;;;;;;;;;;;3.08;74.50;98459.31;7376413;19;19946;-71
2023/03/05 03:39:09;;;;;;;;;;;;;;;3.11;74.57;98449.56;7377868;19;19914;-71
2023/03/05 03:41:36;;;;;;;;;;;;;;;3.09;74.30;98441.84;7380724;19;19944;-71
2023/03/05 03:44:03;;;;;;;;;;;;;;;3.11;74.63;98442.59;7380036;19;19927;-71
2023/03/05 03:46:30;;;;;;;;;;;;;;;3.10;74.94;98440.06;7382727;19;19916;-71
2023/03/05 03:48:56;;;;;;;;;;;;;;;3.13;74.84;98439.84;7381363;19;19957;-71
2023/03/05 03:51:23;;;;;;;;;;;;;;;3.15;74.71;98443.19;7382961;19;20628;-71
2023/03/05 03:53:49;;;;;;;;;;;;;;;3.17;74.83;98434.31;7380846;19;19950;-71
2023/03/05 03:56:16;;;;;;;;;;;;;;;3.20;74.66;98430.63;7383183;19;19914;-71
2023/03/05 03:58:43;;;;;;;;;;;;;;;3.20;74.82;98435.88;7381780;19;19927;-71
2023/03/05 04:01:09;;;;;;;;;;;;;;;3.19;74.75;98439.44;7380326;19;19950;-71
2023/03/05 04:03:36;;;;;;;;;;;;;;;3.09;74.49;98428.78;7381483;19;19942;-71
2023/03/05 04:06:03;;;;;;;;;;;;;;;3.04;74.53;98431.72;7377510;19;20476;-72
2023/03/05 04:08:29;;;;;;;;;;;;;;;3.00;74.71;98432.88;7382139;19;19952;-71
2023/03/05 04:10:56;;;;;;;;;;;;;;;2.92;74.89;98422.09;7380024;19;19914;-71
2023/03/05 04:13:23;;;;;;;;;;;;;;;2.99;74.66;98428.56;7382112;19;20302;-71
2023/03/05 04:15:49;;;;;;;;;;;;;;;3.01;74.67;98429.31;7376843;19;19918;-71
2023/03/05 04:18:16;;;;;;;;;;;;;;;3.04;74.75;98423.88;7381194;19;19931;-71
2023/03/05 04:20:42;;;;;;;;;;;;;;;2.95;74.64;98421.91;7381579;19;20314;-71
2023/03/05 04:23:09;;;;;;;;;;;;;;;2.88;74.82;98420.66;7379840;19;19922;-71
2023/03/05 04:25:35;;;;;;;;;;;;;;;2.84;74.95;98412.22;7375611;19;19919;-71
2023/03/05 04:28:02;;;;;;;;;;;;;;;2.84;75.01;98420.03;7379603;19;19942;-71
2023/03/05 04:30:30;;;;;;;;;;;;;;;2.85;75.00;98411.25;7381264;19;19967;-71
2023/03/05 04:32:56;;;;;;;;;;;;;;;2.93;74.88;98415.94;7380759;19;19943;-71
2023/03/05 04:35:23;;;;;;;;;;;;;;;2.93;74.86;98410.72;7381490;19;19926;-71
2023/03/05 04:37:49;;;;;;;;;;;;;;;2.90;75.48;98413.56;7378649;19;19940;-71
2023/03/05 04:40:16;;;;;;;;;;;;;;;2.79;75.54;98405.59;7379167;19;19926;-71
2023/03/05 04:42:43;;;;;;;;;;;;;;;2.76;75.53;98408.44;7378837;19;19950;-71
2023/03/05 04:45:10;;;;;;;;;;;;;;;2.91;75.41;98409.16;7377417;19;19954;-71
2023/03/05 04:47:36;;;;;;;;;;;;;;;2.93;75.20;98413.34;7380915;19;19947;-71
2023/03/05 04:50:04;;;;;;;;;;;;;;;2.90;75.20;98402.25;7378947;19;20264;-71
2023/03/05 04:52:30;;;;;;;;;;;;;;;2.91;75.25;98409.97;7379376;19;19922;-71
2023/03/05 04:54:57;;;;;;;;;;;;;;;2.93;75.37;98405.50;7376283;19;19942;-71
2023/03/05 04:57:23;;;;;;;;;;;;;;;2.89;75.43;98400.59;7380867;19;19918;-71
2023/03/05 04:59:50;;;;;;;;;;;;;;;3.01;75.39;98405.78;7379118;19;19927;-71
2023/03/05 05:02:16;;;;;;;;;;;;;;;2.95;75.40;98390.56;7379279;19;20367;-71
2023/03/05 05:04:44;;;;;;;;;;;;;;;2.97;75.87;98396.47;7375760;19;19940;-71
2023/03/05 05:07:11;;;;;;;;;;;;;;;2.95;75.53;98397.53;7379058;19;19910;-71
2023/03/05 05:09:40;;;;;;;;;;;;;;;2.86;75.99;98401.63;7378941;19;19919;-71
2023/03/05 05:12:06;;;;;;;;;;;;;;;2.75;75.96;98393.72;7377425;19;19970;-71
2023/03/05 05:14:33;;;;;;;;;;;;;;;2.77;76.52;98392.66;7377884;19;19943;-71
2023/03/05 05:17:03;;;;;;;;;;;;;;;2.76;75.93;98392.75;7378881;19;19927;-71
2023/03/05 05:19:31;;;;;;;;;;;;;;;2.79;75.82;98389.94;7382579;19;19929;-71
2023/03/05 05:21:57;;;;;;;;;;;;;;;2.71;76.18;98387.84;7379410;19;19921;-71
2023/03/05 05:24:24;;;;;;;;;;;;;;;2.72;76.13;98393.94;7380402;19;19918;-71
2023/03/05 05:26:52;;;;;;;;;;;;;;;2.78;76.02;98390.88;7376289;19;20039;-71
2023/03/05 05:29:19;;;;;;;;;;;;;;;2.85;75.64;98394.75;7375957;19;19942;-71
2023/03/05 05:31:45;;;;;;;;;;;;;;;2.80;75.64;98394.22;7379092;19;19926;-71
2023/03/05 05:34:12;;;;;;;;;;;;;;;2.74;75.53;98390.25;7372515;19;19929;-71
2023/03/05 05:36:39;;;;;;;;;;;;;;;2.79;75.74;98390.78;7379120;19;19929;-71
2023/03/05 05:39:05;;;;;;;;;;;;;;;2.76;75.91;98390.97;7376027;19;19915;-71
2023/03/05 05:41:32;;;;;;;;;;;;;;;2.79;75.63;98397.75;7380455;19;19919;-71
2023/03/05 05:43:58;;;;;;;;;;;;;;;2.82;76.00;98390.56;7374416;19;19926;-71
2023/03/05 05:46:25;;;;;;;;;;;;;;;2.78;75.80;98389.09;7377316;19;20422;-71
2023/03/05 05:48:51;;;;;;;;;;;;;;;2.88;75.60;98388.47;7377376;19;19958;-71
2023/03/05 05:51:20;;;;;;;;;;;;;;;2.81;75.73;98388.88;7377551;19;19940;-71
2023/03/05 05:53:46;;;;;;;;;;;;;;;2.77;76.10;98392.66;7374423;19;19933;-71
2023/03/05 05:56:13;;;;;;;;;;;;;;;2.69;76.35;98383.69;7376260;19;19940;-71
2023/03/05 05:58:40;;;;;;;;;;;;;;;2.75;76.11;98393.72;7377536;19;19915;-71
2023/03/05 06:01:22;;;;;;;;;;;;;;;2.77;75.89;98386.59;7378113;19;19939;-71
2023/03/05 06:03:49;;;;;;;;;;;;;;;2.80;75.89;98391.63;7375759;19;19926;-71
2023/03/05 06:06:16;;;;;;;;;;;;;;;2.84;76.18;98390.44;7373872;19;19915;-71
2023/03/05 06:08:43;;;;;;;;;;;;;;;2.78;76.06;98388.25;7378140;19;19914;-71
2023/03/05 06:11:10;;;;;;;;;;;;;;;2.82;76.32;98389.75;7379326;19;20367;-71
2023/03/05 06:13:36;;;;;;;;;;;;;;;2.87;76.54;98392.88;7376871;19;19922;-71
2023/03/05 06:16:05;;;;;;;;;;;;;;;2.83;76.25;98386.16;7374957;19;19930;-71
2023/03/05 06:18:32;;;;;;;;;;;;;;;2.76;76.02;98392.75;7379872;19;19915;-71
2023/03/05 06:21:02;;;;;;;;;;;;;;;2.78;75.59;98393.50;7377939;19;20018;-71
2023/03/05 06:23:29;;;;;;;;;;;;;;;2.94;75.75;98390.66;7376261;19;19918;-71
2023/03/05 06:25:59;;;;;;;;;;;;;;;2.93;75.70;98395.03;7375028;19;19923;-71
2023/03/05 06:28:26;;;;;;;;;;;;;;;2.86;75.47;98388.56;7378643;19;19919;-70
2023/03/05 06:31:03;;;;;;;;;;;;;;;2.91;75.11;98390.88;7374161;19;19972;-71
2023/03/05 06:33:30;;;;;;;;;;;;;;;2.94;75.07;98393.25;7378703;19;19927;-72
2023/03/05 06:35:56;;;;;;;;;;;;;;;2.98;75.20;98394.72;7375087;19;19918;-71
2023/03/05 06:38:23;;;;;;;;;;;;;;;2.98;75.44;98389.50;7376139;19;19928;-71
2023/03/05 06:40:50;;;;;;;;;;;;;;;3.10;75.37;98388.63;7379572;19;20424;-71
2023/03/05 06:43:16;;;;;;;;;;;;;;;3.12;75.00;98380.69;7376477;19;19946;-71
2023/03/05 06:45:43;;;;;;;;;;;;;;;3.10;75.24;98390.41;7373339;19;19951;-72
2023/03/05 06:48:10;;;;;;;;;;;;;;;3.11;75.57;98384.22;7374399;19;19940;-72
2023/03/05 06:50:37;;;;;;;;;;;;;;;3.20;75.38;98380.97;7374097;19;19918;-72
2023/03/05 06:53:04;;;;;;;;;;;;;;;3.01;75.15;98382.28;7371238;19;20287;-72
2023/03/05 06:55:38;;;;;;;;;;;;;;;3.12;74.74;98380.69;7373030;19;19955;-72
2023/03/05 06:58:05;;;;;;;;;;;;;;;3.18;74.52;98383.69;7374118;19;19919;-72
2023/03/05 07:00:31;;;;;;;;;;;;;;;3.20;74.52;98380.97;7379772;19;19927;-71
2023/03/05 07:02:58;;;;;;;;;;;;;;;3.19;74.26;98382.75;7379659;19;19941;-71
2023/03/05 07:05:25;;;;;;;;;;;;;;;3.19;74.62;98376.69;7372851;19;19955;-71
2023/03/05 07:07:51;;;;;;;;;;;;;;;3.26;74.20;98381.34;7376448;19;20264;-71
2023/03/05 07:10:18;;;;;;;;;;;;;;;3.27;74.63;98380.44;7374799;19;20265;-71
2023/03/05 07:12:44;;;;;;;;;;;;;;;3.35;74.28;98374.66;7374193;19;19915;-71
2023/03/05 07:15:11;;;;;;;;;;;;;;;3.26;74.27;98375.28;7377781;19;19919;-71
2023/03/05 07:17:37;;;;;;;;;;;;;;;3.29;74.04;98377.69;7386068;19;19919;-71
2023/03/05 07:20:04;;;;;;;;;;;;;;;3.28;74.12;98379.47;7377190;19;19945;-72
2023/03/05 07:22:31;;;;;;;;;;;;;;;3.29;74.07;98378.53;7382143;19;19923;-72
2023/03/05 07:24:57;;;;;;;;;;;;;;;3.36;73.92;98375.47;7380905;19;20313;-72
2023/03/05 07:27:24;;;;;;;;;;;;;;;3.36;73.71;98371.06;7380310;19;20260;-72
2023/03/05 07:29:50;;;;;;;;;;;;;;;3.39;73.90;98372.63;7384578;19;21960;-72
2023/03/05 07:32:17;;;;;;;;;;;;;;;3.39;73.93;98372.63;7382615;19;19926;-72
2023/03/05 07:34:44;;;;;;;;;;;;;;;3.39;74.17;98368.22;7383072;19;19926;-72
2023/03/05 07:37:10;;;;;;;;;;;;;;;3.49;74.29;98373.66;7379888;19;20345;-72
2023/03/05 07:39:37;;;;;;;;;;;;;;;3.51;73.98;98364.75;7380294;19;19919;-72
2023/03/05 07:42:03;;;;;;;;;;;;;;;3.47;73.70;98359.84;7380991;19;19946;-72
2023/03/05 07:44:46;;;;;;;;;;;;;;;3.46;73.56;98364.25;7373281;19;19914;-72
2023/03/05 07:47:13;;;;;;;;;;;;;;;3.54;73.27;98362.84;7381085;19;19926;-72
2023/03/05 07:49:40;;;;;;;;;;;;;;;3.55;73.18;98365.34;7382944;19;20000;-72
2023/03/05 07:52:07;;;;;;;;;;;;;;;3.62;73.00;98363.13;7375132;19;19950;-72
2023/03/05 07:54:37;;;;;;;;;;;;;;;3.55;72.63;98362.72;7377506;19;19922;-72
2023/03/05 07:57:04;;;;;;;;;;;;;;;3.66;72.68;98375.03;7377878;19;19929;-72
2023/03/05 07:59:31;;;;;;;;;;;;;;;3.85;72.81;98366.69;7374520;19;19926;-72
2023/03/05 08:01:57;;;;;;;;;;;;;;;3.93;72.80;98361.69;7379249;19;19914;-72
2023/03/05 08:04:24;;;;;;;;;;;;;;;4.00;72.39;98362.06;7379026;19;19927;-72
2023/03/05 08:06:51;;;;;;;;;;;;;;;4.07;71.96;98363.28;7379411;19;19932;-73
2023/03/05 08:09:18;;;;;;;;;;;;;;;4.09;71.85;98356.16;7379390;19;19930;-72
2023/03/05 08:11:44;;;;;;;;;;;;;;;3.97;71.39;98357.91;7383827;19;19919;-72
2023/03/05 08:14:11;;;;;;;;;;;;;;;3.90;71.51;98360.16;7379893;19;19914;-72
2023/03/05 08:16:37;;;;;;;;;;;;;;;3.88;71.67;98355.97;7384776;19;19995;-72
2023/03/05 08:19:04;;;;;;;;;;;;;;;3.79;72.14;98367.97;7380239;19;19930;-72
2023/03/05 08:21:34;;;;;;;;;;;;;;;3.96;71.52;98351.81;7383490;19;19923;-72
2023/03/05 08:24:02;;;;;;;;;;;;;;;3.99;71.33;98349.94;7378213;19;19914;-72
2023/03/05 08:26:30;;;;;;;;;;;;;;;3.95;71.26;98354.56;7381973;19;19926;-72
2023/03/05 08:28:57;;;;;;;;;;;;;;;3.90;71.12;98354.91;7381428;19;19918;-72
2023/03/05 08:31:24;;;;;;;;;;;;;;;3.97;70.93;98350.03;7379837;19;19918;-72
2023/03/05 08:33:52;;;;;;;;;;;;;;;4.02;71.31;98347.91;7379073;19;20340;-72
2023/03/05 08:36:18;;;;;;;;;;;;;;;3.99;71.11;98349.94;7381818;19;19930;-72
2023/03/05 08:38:47;;;;;;;;;;;;;;;4.11;70.94;98349.84;7380103;19;19992;-72
2023/03/05 08:41:14;;;;;;;;;;;;;;;3.99;70.79;98355.16;7377708;19;19923;-72
2023/03/05 08:43:41;;;;;;;;;;;;;;;4.14;70.81;98348.78;7378330;19;19986;-72
2023/03/05 08:46:09;;;;;;;;;;;;;;;4.08;70.71;98354.47;7379564;19;19945;-71
2023/03/05 08:48:35;;;;;;;;;;;;;;;3.97;70.85;98350.88;7381335;19;20400;-72
2023/03/05 08:51:15;;;;;;;;;;;;;;;4.01;70.72;98348.88;7381492;19;20248;-72
2023/03/05 08:53:42;;;;;;;;;;;;;;;4.05;70.88;98345.06;7382281;19;19910;-72
2023/03/05 08:56:08;;;;;;;;;;;;;;;3.90;70.67;98341.81;7379207;19;20604;-72
2023/03/05 08:58:35;;;;;;;;;;;;;;;3.94;70.79;98337.19;7380809;19;20042;-72
2023/03/05 09:01:01;;;;;;;;;;;;;;;3.80;70.47;98338.22;7378876;19;19919;-72
2023/03/05 09:03:28;;;;;;;;;;;;;;;3.97;70.24;98342.19;7376528;19;19958;-72
2023/03/05 09:05:57;;;;;;;;;;;;;;;4.08;70.27;98339.63;7375326;19;20292;-72
2023/03/05 09:08:24;;;;;;;;;;;;;;;4.15;69.95;98337.34;7379568;19;19931;-72
2023/03/05 09:10:50;;;;;;;;;;;;;;;4.17;69.92;98333.66;7374535;19;19922;-72
2023/03/05 09:13:17;;;;;;;;;;;;;;;4.22;69.69;98332.50;7380432;19;19994;-72
2023/03/05 09:15:44;;;;;;;;;;;;;;;4.13;69.68;98332.25;7376058;19;20328;-72
2023/03/05 09:18:10;;;;;;;;;;;;;;;4.23;69.75;98329.75;7376485;19;19923;-72
2023/03/05 09:20:37;;;;;;;;;;;;;;;4.35;69.47;98328.00;7378135;19;19930;-72
2023/03/05 09:23:03;;;;;;;;;;;;;;;4.33;69.34;98332.50;7381324;19;19938;-72
2023/03/05 09:25:30;;;;;;;;;;;;;;;4.44;69.20;98323.81;7376802;19;19943;-72
2023/03/05 09:27:56;;;;;;;;;;;;;;;4.44;68.73;98316.78;7379641;19;19919;-72
2023/03/05 09:30:23;;;;;;;;;;;;;;;4.34;68.83;98314.03;7377048;19;19915;-72
2023/03/05 09:32:50;;;;;;;;;;;;;;;4.62;68.83;98319.78;7381706;19;19927;-72
2023/03/05 09:35:16;;;;;;;;;;;;;;;4.79;68.43;98313.19;7373388;19;20378;-72
2023/03/05 09:37:43;;;;;;;;;;;;;;;4.68;67.80;98311.44;7378515;19;20284;-72
2023/03/05 09:40:12;;;;;;;;;;;;;;;4.95;67.80;98311.06;7373705;19;19946;-72
2023/03/05 09:43:01;;;;;;;;;;;;;;;5.07;67.37;98309.22;7375323;19;19954;-72
2023/03/05 09:45:31;;;;;;;;;;;;;;;5.06;66.77;98305.78;7372179;19;19923;-72
2023/03/05 09:48:01;;;;;;;;;;;;;;;5.01;66.36;98301.88;7379022;19;19925;-72
2023/03/05 09:50:31;;;;;;;;;;;;;;;4.99;66.71;98298.53;7373325;19;19944;-72
2023/03/05 09:53:11;;;;;;;;;;;;;;;4.99;66.90;98298.53;7375137;19;19943;-71
2023/03/05 09:55:39;;;;;;;;;;;;;;;5.15;66.67;98292.88;7374479;19;20339;-71
2023/03/05 09:58:09;;;;;;;;;;;;;;;5.35;66.67;98293.91;7375989;19;19923;-71
2023/03/05 10:00:40;;;;;;;;;;;;;;;5.47;66.26;98295.50;7378507;19;20315;-71
2023/03/05 10:03:15;;;;;;;;;;;;;;;5.49;66.25;98285.72;7379078;19;19922;-71
2023/03/05 10:05:41;;;;;;;;;;;;;;;5.42;65.53;98293.25;7375841;19;19922;-71
2023/03/05 10:08:10;;;;;;;;;;;;;;;5.47;65.80;98285.03;7374625;19;19919;-71
2023/03/05 10:10:40;;;;;;;;;;;;;;;5.41;65.54;98288.16;7378576;19;20367;-71
2023/03/05 10:13:15;;;;;;;;;;;;;;;5.23;65.75;98296.56;7376399;19;19969;-71
2023/03/05 10:15:51;;;;;;;;;;;;;;;5.22;66.04;98284.41;7369767;19;19911;-71
2023/03/05 10:18:17;;;;;;;;;;;;;;;5.10;65.98;98292.44;7375054;19;20324;-71
2023/03/05 10:20:49;;;;;;;;;;;;;;;5.14;66.29;98284.19;7376171;19;19914;-72
2023/03/05 10:23:23;;;;;;;;;;;;;;;5.08;66.04;98284.66;7370261;19;19919;-71
2023/03/05 10:25:56;;;;;;;;;;;;;;;4.93;66.51;98281.50;7372683;19;20344;-71
2023/03/05 10:28:31;;;;;;;;;;;;;;;4.90;66.29;98280.91;7375255;19;19918;-71
2023/03/05 10:31:07;;;;;;;;;;;;;;;4.72;66.94;98276.19;7376471;19;19919;-72
2023/03/05 10:33:56;;;;;;;;;;;;;;;4.96;67.03;98272.56;7377942;19;19926;-71
2023/03/05 10:36:44;;;;;;;;;;;;;;;5.05;66.63;98274.44;7374427;19;19923;-71
2023/03/05 10:39:14;;;;;;;;;;;;;;;5.06;66.86;98270.88;7373473;19;19915;-71
2023/03/05 10:42:01;;;;;;;;;;;;;;;5.14;66.07;98265.84;7377919;19;19919;-73
2023/03/05 10:44:44;;;;;;;;;;;;;;;5.05;66.51;98261.31;7372788;19;20966;-71
2023/03/05 10:47:13;;;;;;;;;;;;;;;5.06;67.09;98269.06;7373901;19;19927;-71
2023/03/05 10:49:42;;;;;;;;;;;;;;;5.21;66.64;98267.00;7382500;19;19919;-71
2023/03/05 10:52:27;;;;;;;;;;;;;;;5.31;66.49;98264.47;7380247;19;19922;-71
2023/03/05 10:54:53;;;;;;;;;;;;;;;5.29;66.22;98250.63;7380441;19;19938;-71
2023/03/05 10:57:26;;;;;;;;;;;;;;;5.41;65.82;98252.25;7379952;19;19923;-71
2023/03/05 11:00:05;;;;;;;;;;;;;;;5.49;65.45;98249.00;7383000;19;19956;-71
2023/03/05 11:02:32;;;;;;;;;;;;;;;5.47;64.95;98249.13;7383812;19;20576;-71
2023/03/05 11:04:58;;;;;;;;;;;;;;;5.38;65.76;98246.44;7381634;19;19929;-71
2023/03/05 11:07:25;;;;;;;;;;;;;;;5.26;65.77;98245.63;7381344;19;19943;-71
2023/03/05 11:10:21;;;;;;;;;;;;;;;5.28;65.90;98236.69;7380474;19;20351;-71
2023/03/05 11:12:48;;;;;;;;;;;;;;;5.33;65.50;98238.13;7381555;19;19929;-71
2023/03/05 11:15:14;;;;;;;;;;;;;;;5.39;65.73;98233.19;7372161;19;19934;-71
2023/03/05 11:17:43;;;;;;;;;;;;;;;5.52;65.38;98230.38;7378163;19;19919;-71
2023/03/05 11:20:22;;;;;;;;;;;;;;;5.42;65.54;98222.41;7378451;19;19922;-71
2023/03/05 11:23:11;;;;;;;;;;;;;;;5.22;65.27;98223.25;7382676;19;19925;-71
2023/03/05 11:25:49;;;;;;;;;;;;;;;5.47;65.78;98216.81;7381126;19;20374;-70
2023/03/05 11:28:20;;;;;;;;;;;;;;;5.53;65.65;98213.69;7379299;19;19950;-70
2023/03/05 11:31:02;;;;;;;;;;;;;;;5.58;65.49;98216.75;7382691;19;19928;-71
2023/03/05 11:33:29;;;;;;;;;;;;;;;5.68;65.23;98211.56;7374503;19;19918;-71
2023/03/05 11:36:17;;;;;;;;;;;;;;;5.67;65.33;98204.66;7379926;19;19946;-71
2023/03/05 11:38:45;;;;;;;;;;;;;;;5.77;65.14;98204.72;7380003;19;20267;-71
2023/03/05 11:41:12;;;;;;;;;;;;;;;5.71;64.29;98206.03;7382047;19;20901;-71
2023/03/05 11:43:40;;;;;;;;;;;;;;;5.64;64.76;98200.50;7381767;19;20344;-71
2023/03/05 11:46:08;;;;;;;;;;;;;;;5.63;64.40;98193.56;7379086;19;19939;-70
2023/03/05 11:48:35;;;;;;;;;;;;;;;5.32;65.13;98194.47;7375876;19;20021;-70
2023/03/05 11:51:02;;;;;;;;;;;;;;;5.35;64.63;98195.06;7373704;19;19984;-71
2023/03/05 11:53:30;;;;;;;;;;;;;;;5.41;64.96;98191.09;7375587;19;19926;-70
2023/03/05 11:55:58;;;;;;;;;;;;;;;5.42;64.77;98185.69;7379512;19;19919;-71
2023/03/05 11:58:45;;;;;;;;;;;;;;;5.71;64.34;98188.53;7377860;19;20307;-71
2023/03/05 12:01:16;;;;;;;;;;;;;;;5.82;63.78;98184.13;7377222;19;20344;-71
2023/03/05 12:03:42;;;;;;;;;;;;;;;5.97;62.92;98182.88;7378335;19;19926;-70
2023/03/05 12:06:24;;;;;;;;;;;;;;;6.06;62.69;98179.47;7378411;19;19986;-71
2023/03/05 12:08:51;;;;;;;;;;;;;;;6.07;62.76;98169.78;7377185;19;19914;-71
2023/03/05 12:11:19;;;;;;;;;;;;;;;6.11;61.95;98172.03;7375785;19;20345;-70
2023/03/05 12:13:49;;;;;;;;;;;;;;;6.08;61.82;98160.94;7379020;19;19926;-71
2023/03/05 12:16:16;;;;;;;;;;;;;;;6.05;62.12;98154.16;7373815;19;19915;-70
2023/03/05 12:18:51;;;;;;;;;;;;;;;6.12;62.32;98157.91;7379867;19;19915;-71
2023/03/05 12:21:26;;;;;;;;;;;;;;;6.09;62.30;98155.56;7371755;19;19922;-71
2023/03/05 12:23:54;;;;;;;;;;;;;;;6.04;63.13;98143.78;7371434;19;19946;-71
2023/03/05 12:26:39;;;;;;;;;;;;;;;5.81;64.84;98146.56;7373613;19;19929;-71
2023/03/05 12:29:12;;;;;;;;;;;;;;;5.69;64.06;98140.56;7374140;19;19930;-71
2023/03/05 12:31:43;;;;;;;;;;;;;;;5.95;63.96;98140.19;7375361;19;19918;-71
2023/03/05 12:34:28;;;;;;;;;;;;;;;5.89;63.75;98138.03;7374749;19;19919;-71
2023/03/05 12:36:54;;;;;;;;;;;;;;;5.67;64.44;98132.00;7378529;19;19967;-71
2023/03/05 12:39:40;;;;;;;;;;;;;;;5.67;64.56;98125.91;7372711;19;19911;-71
2023/03/05 12:42:26;;;;;;;;;;;;;;;5.51;64.55;98126.38;7376598;19;19922;-71
2023/03/05 12:45:11;;;;;;;;;;;;;;;5.62;64.05;98117.59;7374048;19;20255;-71
2023/03/05 12:47:38;;;;;;;;;;;;;;;5.79;64.92;98108.28;7374482;19;19982;-71
2023/03/05 12:50:24;;;;;;;;;;;;;;;5.91;65.16;98105.44;7375876;19;19914;-71
2023/03/05 12:52:51;;;;;;;;;;;;;;;5.75;64.84;98101.63;7377519;19;19915;-71
2023/03/05 12:55:33;;;;;;;;;;;;;;;5.65;65.33;98098.97;7369067;19;19930;-71
2023/03/05 12:58:08;;;;;;;;;;;;;;;5.54;65.73;98096.44;7376403;19;20263;-71
2023/03/05 13:00:45;;;;;;;;;;;;;;;5.72;65.67;98092.25;7369719;19;19952;-71
2023/03/05 13:03:23;;;;;;;;;;;;;;;5.68;65.21;98102.16;7373486;19;19922;-71
2023/03/05 13:05:51;;;;;;;;;;;;;;;5.71;64.99;98096.66;7371812;19;19919;-71
2023/03/05 13:08:17;;;;;;;;;;;;;;;5.79;64.45;98088.09;7370919;19;19922;-71